Time;durP1;ratioP1;P1;durP2;ratioP2;P2;SDS_P1;SDS_P2;PMS_P1;PMS_P2;Temp;Humidity;BMP_temperature;BMP_pressure;BME280_temperature;BME280_humidity;BME280_pressure;Samples;Min_cycle;Max_cycle;Signal;HPM_P1;HPM_P2
2022/01/06 00:01:53;;;;;;;2.07;0.53;;;1.70;99.90;;;;;;5056966;28;20199;-45
2022/01/06 00:04:20;;;;;;;6.10;0.93;;;1.70;99.90;;;;;;5058663;28;20218;-50
2022/01/06 00:06:47;;;;;;;3.67;0.80;;;1.70;99.90;;;;;;5045933;28;20203;-45
2022/01/06 00:09:16;;;;;;;4.40;0.60;;;1.60;99.90;;;;;;5045312;28;20233;-44
2022/01/06 00:11:45;;;;;;;0.77;0.47;;;1.60;99.90;;;;;;5042571;28;20264;-46
2022/01/06 00:14:17;;;;;;;2.37;0.83;;;1.60;99.90;;;;;;5063486;28;20218;-50
2022/01/06 00:16:58;;;;;;;1.73;0.63;;;1.60;99.90;;;;;;5050125;28;20206;-49
2022/01/06 00:24:55;;;;;;;3.70;1.27;;;1.50;99.90;;;;;;5046264;28;20189;-46
2022/01/06 00:27:23;;;;;;;1.20;0.53;;;1.50;99.90;;;;;;5035976;28;20232;-45
2022/01/06 00:29:50;;;;;;;4.40;0.70;;;1.50;99.90;;;;;;5060924;28;20190;-51
2022/01/06 00:32:17;;;;;;;3.10;0.67;;;1.50;99.90;;;;;;5055147;28;20206;-47
2022/01/06 00:34:43;;;;;;;4.00;0.70;;;1.50;99.90;;;;;;5060979;28;20200;-50
2022/01/06 00:37:10;;;;;;;1.87;0.80;;;1.50;99.90;;;;;;5053625;28;20195;-50
2022/01/06 00:39:37;;;;;;;1.87;1.10;;;1.40;99.90;;;;;;5043600;28;20282;-50
2022/01/06 00:42:04;;;;;;;4.67;1.27;;;1.40;99.90;;;;;;5034585;28;20202;-48
2022/01/06 00:44:32;;;;;;;5.10;0.73;;;1.40;99.90;;;;;;5063211;28;20260;-51
2022/01/06 00:46:59;;;;;;;4.20;0.87;;;1.40;99.90;;;;;;5041372;28;20196;-51
2022/01/06 00:49:26;;;;;;;1.30;0.70;;;1.40;99.90;;;;;;5051746;28;20412;-48
2022/01/06 00:51:53;;;;;;;2.43;1.10;;;1.40;99.90;;;;;;5052311;28;20202;-50
2022/01/06 00:54:20;;;;;;;4.30;0.90;;;1.40;99.90;;;;;;5048258;28;20206;-54
2022/01/06 00:56:47;;;;;;;5.07;0.40;;;1.30;99.90;;;;;;5051647;28;20195;-47
2022/01/06 00:59:13;;;;;;;4.87;1.00;;;1.30;99.90;;;;;;5050108;28;20210;-46
2022/01/06 01:01:42;;;;;;;2.47;0.70;;;1.30;99.90;;;;;;5063142;28;20194;-47
2022/01/06 01:04:09;;;;;;;1.90;0.80;;;1.30;99.90;;;;;;5054181;28;21123;-50
2022/01/06 01:06:36;;;;;;;2.63;0.60;;;1.20;99.90;;;;;;5063286;28;20187;-49
2022/01/06 01:09:03;;;;;;;1.47;0.80;;;1.20;99.90;;;;;;5062760;28;20253;-47
2022/01/06 01:11:29;;;;;;;2.13;0.60;;;1.20;99.90;;;;;;5065856;28;20197;-46
2022/01/06 01:14:06;;;;;;;1.77;1.00;;;1.10;99.90;;;;;;5052422;28;20705;-48
2022/01/06 01:16:33;;;;;;;2.23;0.63;;;1.10;99.90;;;;;;5066294;28;20275;-48
2022/01/06 01:19:03;;;;;;;3.50;0.90;;;1.10;99.90;;;;;;5050606;28;20217;-46
2022/01/06 01:21:31;;;;;;;3.90;0.80;;;1.10;99.90;;;;;;5048277;28;20207;-50
2022/01/06 01:23:59;;;;;;;1.43;0.63;;;1.10;99.90;;;;;;5054661;28;20234;-53
2022/01/06 01:26:27;;;;;;;3.27;0.60;;;1.10;99.90;;;;;;5047013;28;20685;-47
2022/01/06 01:28:54;;;;;;;2.73;0.70;;;1.10;99.90;;;;;;5039786;28;20199;-48
2022/01/06 01:31:27;;;;;;;4.50;0.87;;;1.10;99.90;;;;;;5063394;28;20202;-50
2022/01/06 01:33:57;;;;;;;3.73;0.77;;;1.00;99.90;;;;;;5063443;28;20248;-50
2022/01/06 01:36:26;;;;;;;5.37;0.90;;;1.00;99.90;;;;;;5060980;28;20194;-44
2022/01/06 01:38:53;;;;;;;1.47;0.70;;;1.00;99.90;;;;;;5058492;28;20222;-48
2022/01/06 01:41:20;;;;;;;3.10;0.77;;;1.00;99.90;;;;;;5045754;28;20912;-49
2022/01/06 01:43:48;;;;;;;6.00;1.07;;;1.00;99.90;;;;;;5058018;28;20226;-46
2022/01/06 01:46:18;;;;;;;3.47;1.30;;;1.00;99.90;;;;;;5058995;28;20930;-48
2022/01/06 01:48:47;;;;;;;3.37;0.87;;;0.90;99.90;;;;;;5060307;28;20244;-49
2022/01/06 01:51:14;;;;;;;3.90;0.90;;;0.90;99.90;;;;;;5043568;28;20997;-48
2022/01/06 01:53:42;;;;;;;3.00;0.80;;;0.80;99.90;;;;;;5065684;28;20210;-45
2022/01/06 01:56:11;;;;;;;0.63;0.57;;;0.80;99.90;;;;;;5062792;28;20202;-47
2022/01/06 01:58:40;;;;;;;1.90;0.43;;;0.80;99.90;;;;;;5054614;28;20222;-49
2022/01/06 02:01:08;;;;;;;3.63;0.70;;;0.80;99.90;;;;;;5050639;28;20328;-48
2022/01/06 02:03:34;;;;;;;4.00;0.80;;;0.80;99.90;;;;;;5066294;28;20698;-46
2022/01/06 02:06:01;;;;;;;4.20;0.60;;;0.80;99.90;;;;;;5053004;28;20199;-48
2022/01/06 02:08:28;;;;;;;4.87;0.97;;;0.80;99.90;;;;;;5066176;28;20193;-48
2022/01/06 02:10:56;;;;;;;4.77;0.70;;;0.70;99.90;;;;;;5063100;28;20205;-48
2022/01/06 02:13:27;;;;;;;2.57;0.73;;;0.60;99.90;;;;;;5048002;28;20225;-50
2022/01/06 02:15:54;;;;;;;6.97;0.93;;;0.60;99.90;;;;;;5036559;28;20192;-46
2022/01/06 02:18:21;;;;;;;2.13;0.90;;;0.50;99.90;;;;;;5061818;28;20233;-46
2022/01/06 02:20:50;;;;;;;2.20;0.50;;;0.50;99.90;;;;;;5062073;28;20547;-50
2022/01/06 02:23:17;;;;;;;6.13;0.90;;;0.40;99.90;;;;;;5058618;28;20226;-48
2022/01/06 02:25:44;;;;;;;3.27;0.77;;;0.40;99.90;;;;;;5062206;28;20243;-47
2022/01/06 02:28:11;;;;;;;2.83;0.70;;;0.40;99.90;;;;;;5043901;28;20326;-50
2022/01/06 02:30:38;;;;;;;1.87;0.80;;;0.40;99.90;;;;;;5056925;28;20267;-44
2022/01/06 02:33:06;;;;;;;2.17;0.70;;;0.40;99.90;;;;;;5049635;28;20225;-47
2022/01/06 02:35:33;;;;;;;2.90;0.80;;;0.40;99.90;;;;;;5064684;28;20275;-46
2022/01/06 02:38:01;;;;;;;3.40;0.60;;;0.40;99.90;;;;;;5045377;28;20699;-52
2022/01/06 02:40:28;;;;;;;1.43;0.60;;;0.30;99.90;;;;;;5065631;28;20190;-50
2022/01/06 02:42:57;;;;;;;1.60;0.57;;;0.30;99.90;;;;;;5061567;28;20210;-49
2022/01/06 02:45:26;;;;;;;1.57;0.63;;;0.30;99.90;;;;;;5064443;28;20193;-48
2022/01/06 02:47:53;;;;;;;3.27;0.50;;;0.30;99.90;;;;;;5042267;28;20275;-50
2022/01/06 02:50:20;;;;;;;3.30;0.80;;;0.30;99.90;;;;;;5063642;28;20186;-47
2022/01/06 02:52:47;;;;;;;3.07;0.70;;;0.30;99.90;;;;;;5049925;28;20228;-51
2022/01/06 02:55:16;;;;;;;1.90;1.00;;;0.30;99.90;;;;;;5058748;28;20205;-49
2022/01/06 02:57:44;;;;;;;0.50;0.33;;;0.30;99.90;;;;;;5059944;28;20202;-47
2022/01/06 03:00:14;;;;;;;1.83;0.57;;;0.30;99.90;;;;;;5051340;28;20936;-47
2022/01/06 03:02:43;;;;;;;2.03;0.63;;;0.30;99.90;;;;;;5051188;28;20616;-47
2022/01/06 03:05:10;;;;;;;4.43;0.77;;;0.30;99.90;;;;;;5061633;28;20194;-50
2022/01/06 03:07:37;;;;;;;5.63;1.03;;;0.30;99.90;;;;;;5059698;28;20197;-49
2022/01/06 03:10:07;;;;;;;6.30;0.90;;;0.30;99.90;;;;;;5047552;28;20880;-46
2022/01/06 03:12:39;;;;;;;2.20;0.80;;;0.30;99.90;;;;;;5062689;28;20202;-48
2022/01/06 03:15:08;;;;;;;3.23;0.67;;;0.30;99.90;;;;;;5050346;28;20884;-48
2022/01/06 03:17:35;;;;;;;3.30;0.60;;;0.30;99.90;;;;;;5054111;28;20199;-48
2022/01/06 03:20:03;;;;;;;3.17;0.60;;;0.30;99.90;;;;;;5043977;28;20213;-47
2022/01/06 03:22:30;;;;;;;4.33;1.00;;;0.20;99.90;;;;;;5059873;28;20200;-49
2022/01/06 03:24:57;;;;;;;1.07;0.80;;;0.30;99.90;;;;;;5044638;28;20234;-50
2022/01/06 03:27:23;;;;;;;1.17;0.60;;;0.20;99.90;;;;;;5063265;28;20207;-49
2022/01/06 03:29:51;;;;;;;3.30;0.83;;;0.20;99.90;;;;;;5056505;28;20199;-53
2022/01/06 03:32:19;;;;;;;4.10;0.97;;;0.20;99.90;;;;;;5055100;28;20201;-48
2022/01/06 03:34:46;;;;;;;1.47;0.30;;;0.20;99.90;;;;;;5040814;28;20614;-53
2022/01/06 03:37:14;;;;;;;1.77;0.50;;;0.20;99.90;;;;;;5061573;28;20193;-52
2022/01/06 03:39:43;;;;;;;2.53;0.60;;;0.20;99.90;;;;;;5064020;28;20213;-51
2022/01/06 03:42:10;;;;;;;4.20;0.83;;;0.20;99.90;;;;;;5052126;28;20198;-47
2022/01/06 03:44:37;;;;;;;2.10;0.60;;;0.10;99.90;;;;;;5055112;28;20219;-48
2022/01/06 03:47:06;;;;;;;3.43;0.90;;;0.10;99.90;;;;;;5049639;28;20194;-49
2022/01/06 03:49:32;;;;;;;2.37;0.80;;;0.00;99.90;;;;;;5049094;28;20206;-47
2022/01/06 03:51:59;;;;;;;3.10;0.60;;;0.00;99.90;;;;;;5046024;28;20213;-49
2022/01/06 03:54:27;;;;;;;1.07;0.50;;;-0.10;99.90;;;;;;5056841;28;20225;-50
2022/01/06 03:56:53;;;;;;;3.90;1.10;;;-0.10;99.90;;;;;;5054077;28;20264;-50
2022/01/06 03:59:20;;;;;;;2.90;0.80;;;-0.10;99.90;;;;;;5062197;28;20213;-48
2022/01/06 04:01:47;;;;;;;8.00;2.27;;;-0.10;99.90;;;;;;5055513;28;20198;-52
2022/01/06 04:04:16;;;;;;;3.80;1.50;;;0.00;99.90;;;;;;5056391;28;20961;-49
2022/01/06 04:06:43;;;;;;;4.83;1.10;;;-0.10;99.90;;;;;;5051693;28;20209;-53
2022/01/06 04:09:10;;;;;;;4.90;1.90;;;-0.10;99.90;;;;;;5059930;28;20178;-48
2022/01/06 04:11:36;;;;;;;5.00;0.80;;;-0.10;99.90;;;;;;5055067;28;20208;-44
2022/01/06 04:14:03;;;;;;;7.97;0.97;;;-0.10;99.90;;;;;;5055034;28;20210;-43
2022/01/06 04:16:34;;;;;;;3.10;0.87;;;-0.10;99.90;;;;;;5052817;28;20202;-44
2022/01/06 04:19:01;;;;;;;5.13;1.10;;;0.00;99.90;;;;;;5058166;28;20213;-44
2022/01/06 04:21:29;;;;;;;1.93;1.10;;;0.00;99.90;;;;;;5049974;28;20192;-44
2022/01/06 04:23:56;;;;;;;5.60;0.93;;;0.00;99.90;;;;;;5048350;28;20217;-44
2022/01/06 04:26:23;;;;;;;3.33;0.97;;;0.00;99.90;;;;;;5057346;28;20187;-43
2022/01/06 04:28:49;;;;;;;2.63;0.97;;;0.00;99.90;;;;;;5056084;28;20198;-41
2022/01/06 04:31:16;;;;;;;1.80;0.87;;;0.00;99.90;;;;;;5050162;28;20201;-44
2022/01/06 04:33:43;;;;;;;7.00;1.17;;;0.10;99.90;;;;;;5052742;28;20229;-43
2022/01/06 04:36:10;;;;;;;3.27;0.87;;;0.00;99.90;;;;;;5060784;28;20539;-46
2022/01/06 04:38:38;;;;;;;3.70;0.80;;;0.10;99.90;;;;;;5048949;28;20217;-42
2022/01/06 04:41:05;;;;;;;2.20;0.67;;;0.10;99.90;;;;;;5059539;28;20194;-44
2022/01/06 04:43:32;;;;;;;5.53;0.87;;;0.10;99.90;;;;;;5047911;28;20225;-44
2022/01/06 04:46:00;;;;;;;1.10;0.50;;;0.10;99.90;;;;;;5057278;28;20204;-44
2022/01/06 04:48:27;;;;;;;1.97;0.70;;;0.00;99.90;;;;;;5056682;28;20921;-45
2022/01/06 04:50:54;;;;;;;2.70;0.87;;;0.00;99.90;;;;;;5058629;28;20201;-45
2022/01/06 04:53:21;;;;;;;2.43;0.70;;;-0.10;99.90;;;;;;5040103;28;20226;-52
2022/01/06 04:55:51;;;;;;;3.57;1.03;;;-0.10;99.90;;;;;;5059489;28;20578;-43
2022/01/06 04:58:18;;;;;;;2.70;0.90;;;-0.10;99.90;;;;;;5048274;28;20613;-43
2022/01/06 05:00:44;;;;;;;1.80;0.90;;;-0.30;99.90;;;;;;5046135;28;20201;-46
2022/01/06 05:03:11;;;;;;;3.27;1.20;;;-0.30;99.90;;;;;;5061356;28;20222;-45
2022/01/06 05:05:38;;;;;;;4.17;1.17;;;-0.30;99.90;;;;;;5057423;28;20196;-42
2022/01/06 05:08:05;;;;;;;3.90;0.97;;;-0.40;99.90;;;;;;5057495;28;20220;-43
2022/01/06 05:10:32;;;;;;;3.30;0.90;;;-0.40;99.90;;;;;;5046324;28;21086;-45
2022/01/06 05:13:00;;;;;;;4.43;1.47;;;-0.40;99.90;;;;;;5058235;28;20217;-45
2022/01/06 05:15:27;;;;;;;1.80;1.33;;;-0.40;99.90;;;;;;5041064;28;20285;-45
2022/01/06 05:17:54;;;;;;;4.07;1.43;;;-0.50;99.90;;;;;;5061738;28;20596;-42
2022/01/06 05:20:25;;;;;;;3.77;1.20;;;-0.50;99.90;;;;;;5050193;28;20220;-46
2022/01/06 05:22:55;;;;;;;5.60;1.27;;;-0.50;99.90;;;;;;5049918;28;20275;-43
2022/01/06 05:25:25;;;;;;;4.70;1.53;;;-0.50;99.90;;;;;;5045702;28;20289;-47
2022/01/06 05:27:52;;;;;;;4.80;1.33;;;-0.50;99.90;;;;;;5057432;28;20205;-47
2022/01/06 05:30:22;;;;;;;6.60;1.10;;;-0.50;99.90;;;;;;5047791;28;20204;-44
2022/01/06 05:32:48;;;;;;;7.13;1.53;;;-0.40;99.90;;;;;;5051280;28;20224;-44
2022/01/06 05:35:16;;;;;;;7.97;1.30;;;-0.40;99.90;;;;;;5051165;28;20212;-44
2022/01/06 05:37:43;;;;;;;3.77;1.30;;;-0.40;99.90;;;;;;5053154;28;20289;-43
2022/01/06 05:40:11;;;;;;;4.73;1.83;;;-0.40;99.90;;;;;;5056409;28;20217;-42
2022/01/06 05:42:38;;;;;;;4.27;1.30;;;-0.30;99.90;;;;;;5053964;28;20230;-43
2022/01/06 05:45:06;;;;;;;3.00;1.37;;;-0.30;99.90;;;;;;5046561;28;20201;-45
2022/01/06 05:47:34;;;;;;;2.70;1.30;;;-0.20;99.90;;;;;;5053179;28;20202;-45
2022/01/06 05:50:02;;;;;;;4.00;1.03;;;-0.20;99.90;;;;;;5062719;28;20202;-44
2022/01/06 05:52:28;;;;;;;8.13;1.53;;;-0.20;99.90;;;;;;5046227;28;20194;-44
2022/01/06 05:54:55;;;;;;;4.07;2.03;;;-0.20;99.90;;;;;;5053418;28;20570;-43
2022/01/06 05:57:22;;;;;;;4.60;1.50;;;-0.30;99.90;;;;;;5047692;28;20208;-45
2022/01/06 05:59:49;;;;;;;5.07;1.43;;;-0.30;99.90;;;;;;5064656;28;20221;-42
2022/01/06 06:02:16;;;;;;;6.40;1.43;;;-0.40;99.90;;;;;;5053301;28;20205;-43
2022/01/06 06:04:45;;;;;;;6.17;1.40;;;-0.50;99.90;;;;;;5063214;28;20214;-47
2022/01/06 06:07:13;;;;;;;4.40;1.00;;;-0.50;99.90;;;;;;5056749;28;20212;-45
2022/01/06 06:09:39;;;;;;;3.83;1.27;;;-0.60;99.90;;;;;;5060967;28;20204;-45
2022/01/06 06:12:07;;;;;;;5.77;1.87;;;-0.60;99.90;;;;;;5046238;28;20896;-43
2022/01/06 06:14:34;;;;;;;7.37;1.77;;;-0.60;99.90;;;;;;5058357;28;20218;-46
2022/01/06 06:17:01;;;;;;;2.90;1.40;;;-0.60;99.90;;;;;;5050668;28;20220;-46
2022/01/06 06:19:28;;;;;;;6.40;1.67;;;-0.60;99.90;;;;;;5059794;28;20229;-47
2022/01/06 06:21:56;;;;;;;15.90;3.20;;;-0.60;99.90;;;;;;5054123;28;20205;-44
2022/01/06 06:24:23;;;;;;;18.23;3.80;;;-0.60;99.90;;;;;;5053094;28;20214;-45
2022/01/06 06:26:50;;;;;;;28.67;5.57;;;-0.60;99.90;;;;;;5042560;28;23990;-46
2022/01/06 06:29:17;;;;;;;18.67;3.90;;;-0.60;99.90;;;;;;5056788;28;20680;-44
2022/01/06 06:31:44;;;;;;;23.73;4.90;;;-0.50;99.90;;;;;;5051227;28;20216;-43
2022/01/06 06:34:11;;;;;;;25.40;4.57;;;-0.40;99.90;;;;;;5053719;28;20590;-42
2022/01/06 06:36:38;;;;;;;16.63;4.87;;;-0.30;99.90;;;;;;5057563;28;20881;-43
2022/01/06 06:39:07;;;;;;;18.70;4.57;;;-0.30;99.90;;;;;;5058312;28;20217;-45
2022/01/06 06:41:34;;;;;;;17.07;3.77;;;-0.30;99.90;;;;;;5053966;28;20284;-41
2022/01/06 06:44:01;;;;;;;16.67;3.93;;;-0.30;99.90;;;;;;5042507;28;20567;-42
2022/01/06 06:46:28;;;;;;;12.97;3.63;;;-0.30;99.90;;;;;;5049947;28;20231;-48
2022/01/06 06:48:54;;;;;;;12.67;3.00;;;-0.30;99.90;;;;;;5058132;28;20205;-43
2022/01/06 06:51:21;;;;;;;6.20;2.00;;;-0.40;99.90;;;;;;5048687;28;20195;-45
2022/01/06 06:53:48;;;;;;;7.17;2.40;;;-0.40;99.90;;;;;;5037981;28;20214;-42
2022/01/06 06:56:16;;;;;;;7.87;2.93;;;-0.40;99.90;;;;;;5058503;28;20721;-41
2022/01/06 06:58:43;;;;;;;18.30;6.60;;;-0.40;99.90;;;;;;5049155;28;20206;-44
2022/01/06 07:01:09;;;;;;;15.00;3.87;;;-0.30;99.90;;;;;;5055163;28;20217;-41
2022/01/06 07:03:36;;;;;;;11.03;2.83;;;-0.30;99.90;;;;;;5054359;28;20233;-41
2022/01/06 07:06:03;;;;;;;4.33;1.77;;;-0.30;99.90;;;;;;5058916;28;20883;-41
2022/01/06 07:08:30;;;;;;;2.83;1.23;;;-0.40;99.90;;;;;;5054338;28;20552;-45
2022/01/06 07:10:57;;;;;;;4.77;1.60;;;-0.40;99.90;;;;;;5042535;28;20187;-40
2022/01/06 07:13:25;;;;;;;4.40;1.17;;;-0.50;99.90;;;;;;5046197;28;20228;-43
2022/01/06 07:15:52;;;;;;;4.47;1.40;;;-0.50;99.90;;;;;;5053988;28;20209;-41
2022/01/06 07:18:18;;;;;;;5.17;1.20;;;-0.50;99.90;;;;;;5045492;28;20206;-42
2022/01/06 07:20:45;;;;;;;4.47;1.27;;;-0.50;99.90;;;;;;5060080;28;20341;-41
2022/01/06 07:23:12;;;;;;;4.20;1.20;;;-0.50;99.90;;;;;;5057248;28;20237;-41
2022/01/06 07:25:39;;;;;;;2.23;1.27;;;-0.50;99.90;;;;;;5059384;28;20193;-42
2022/01/06 07:28:05;;;;;;;3.70;1.60;;;-0.60;99.90;;;;;;5039298;28;20269;-43
2022/01/06 07:30:34;;;;;;;3.77;1.90;;;-0.50;99.90;;;;;;5058480;28;20206;-43
2022/01/06 07:33:02;;;;;;;7.20;1.53;;;-0.50;99.90;;;;;;5044180;28;20286;-41
2022/01/06 07:35:29;;;;;;;2.13;1.93;;;-0.60;99.90;;;;;;5054519;28;20202;-43
2022/01/06 07:37:56;;;;;;;1.70;1.10;;;-0.60;99.90;;;;;;5054497;28;20209;-41
2022/01/06 07:40:22;;;;;;;4.27;1.47;;;-0.60;99.90;;;;;;5047060;28;20214;-41
2022/01/06 07:42:51;;;;;;;6.13;2.30;;;-0.70;99.90;;;;;;5043444;28;20220;-46
2022/01/06 07:45:19;;;;;;;7.63;2.47;;;-0.70;99.90;;;;;;5036828;28;20547;-40
2022/01/06 07:47:58;;;;;;;13.97;3.63;;;-0.70;99.90;;;;;;5055203;28;20267;-41
2022/01/06 07:50:29;;;;;;;4.10;2.00;;;-0.70;99.90;;;;;;5053367;28;20190;-43
2022/01/06 07:52:56;;;;;;;7.10;2.13;;;-0.60;99.90;;;;;;5053956;28;20236;-40
2022/01/06 07:55:23;;;;;;;16.07;6.20;;;-0.60;99.90;;;;;;5055387;28;20559;-40
2022/01/06 07:57:50;;;;;;;13.20;5.70;;;-0.50;99.90;;;;;;5049654;28;20210;-41
2022/01/06 08:00:18;;;;;;;21.17;4.43;;;-0.50;99.90;;;;;;5025568;28;20318;-40
2022/01/06 08:02:48;;;;;;;12.50;2.87;;;-0.40;99.90;;;;;;5049598;28;20237;-40
2022/01/06 08:05:16;;;;;;;9.33;2.37;;;-0.40;99.90;;;;;;5049563;28;20722;-40
2022/01/06 08:07:43;;;;;;;11.43;2.23;;;-0.30;99.90;;;;;;5051905;28;20199;-40
2022/01/06 08:10:10;;;;;;;7.43;2.43;;;-0.30;99.90;;;;;;5052926;28;20224;-40
2022/01/06 08:12:38;;;;;;;12.07;2.67;;;-0.30;99.90;;;;;;5049671;28;22442;-41
2022/01/06 08:15:06;;;;;;;11.40;2.83;;;-0.30;99.90;;;;;;5041196;28;20682;-39
2022/01/06 08:17:33;;;;;;;5.33;2.13;;;-0.30;99.90;;;;;;5057138;28;20190;-40
2022/01/06 08:20:02;;;;;;;5.57;2.50;;;-0.30;99.90;;;;;;5043348;28;20221;-39
2022/01/06 08:22:29;;;;;;;9.13;1.90;;;-0.20;99.90;;;;;;5052953;28;20204;-39
2022/01/06 08:24:56;;;;;;;12.77;4.60;;;-0.10;99.90;;;;;;5052473;28;20570;-39
2022/01/06 08:27:24;;;;;;;8.00;1.73;;;-0.10;99.90;;;;;;5051028;28;20936;-39
2022/01/06 08:29:52;;;;;;;3.20;1.73;;;0.00;99.90;;;;;;5049351;28;20643;-39
2022/01/06 08:32:18;;;;;;;8.13;1.90;;;0.10;99.90;;;;;;5044515;28;20205;-39
2022/01/06 08:34:45;;;;;;;5.43;1.60;;;0.10;99.90;;;;;;5053031;28;20231;-39
2022/01/06 08:37:14;;;;;;;6.50;1.20;;;0.20;99.90;;;;;;5052793;28;20206;-39
2022/01/06 08:39:42;;;;;;;6.40;1.57;;;0.20;99.90;;;;;;5060596;28;20212;-39
2022/01/06 08:42:11;;;;;;;3.60;1.20;;;0.30;99.90;;;;;;5050951;28;20197;-41
2022/01/06 08:44:39;;;;;;;1.90;1.00;;;0.40;99.90;;;;;;5043954;28;20225;-39
2022/01/06 08:47:07;;;;;;;4.43;1.70;;;0.40;99.90;;;;;;5040304;28;20213;-40
2022/01/06 08:49:34;;;;;;;5.03;1.70;;;0.50;99.90;;;;;;5049492;28;20194;-39
2022/01/06 08:52:01;;;;;;;3.97;1.60;;;0.50;99.90;;;;;;5053909;28;20661;-40
2022/01/06 08:54:29;;;;;;;6.57;1.83;;;0.60;99.90;;;;;;5047600;28;20229;-39
2022/01/06 08:56:57;;;;;;;4.13;1.50;;;0.60;99.90;;;;;;5056294;28;20201;-40
2022/01/06 08:59:24;;;;;;;2.93;1.27;;;0.60;99.90;;;;;;5038636;28;20190;-39
2022/01/06 09:01:51;;;;;;;2.83;1.60;;;0.80;99.90;;;;;;5042673;28;20229;-39
2022/01/06 09:04:20;;;;;;;4.50;1.70;;;0.80;99.90;;;;;;5054280;28;20229;-49
2022/01/06 09:06:48;;;;;;;2.73;1.07;;;0.90;99.90;;;;;;5046681;28;20206;-49
2022/01/06 09:09:15;;;;;;;5.20;1.47;;;1.00;99.90;;;;;;5051617;28;20194;-39
2022/01/06 09:11:44;;;;;;;3.60;1.37;;;1.00;99.90;;;;;;5047435;28;20284;-39
2022/01/06 09:14:11;;;;;;;5.13;1.47;;;1.00;99.90;;;;;;5054886;28;20551;-39
2022/01/06 09:16:38;;;;;;;4.77;1.53;;;1.00;99.90;;;;;;5048334;28;20213;-39
2022/01/06 09:19:05;;;;;;;6.77;1.70;;;1.00;99.90;;;;;;5045172;28;20214;-39
2022/01/06 09:21:32;;;;;;;3.07;1.23;;;1.10;99.90;;;;;;5049451;28;20230;-39
2022/01/06 09:24:01;;;;;;;5.33;1.40;;;1.10;99.90;;;;;;5055414;28;20610;-39
2022/01/06 09:26:28;;;;;;;5.23;1.30;;;1.20;99.90;;;;;;5053227;28;20206;-39
2022/01/06 09:28:56;;;;;;;3.40;1.40;;;1.20;99.90;;;;;;5060993;28;20198;-39
2022/01/06 09:31:23;;;;;;;2.53;1.17;;;1.30;99.90;;;;;;5052024;28;20915;-40
2022/01/06 09:33:50;;;;;;;4.43;1.50;;;1.30;99.90;;;;;;5045634;28;20230;-40
2022/01/06 09:36:16;;;;;;;8.07;1.10;;;1.30;99.90;;;;;;5049198;28;20194;-39
2022/01/06 09:38:45;;;;;;;1.63;0.97;;;1.40;99.90;;;;;;5052898;28;20678;-40
2022/01/06 09:41:14;;;;;;;5.37;1.20;;;1.40;99.90;;;;;;5050462;28;20217;-39
2022/01/06 09:43:43;;;;;;;4.53;1.30;;;1.50;99.90;;;;;;5052354;28;20251;-39
2022/01/06 09:46:12;;;;;;;2.93;1.33;;;1.50;99.90;;;;;;5043723;28;20307;-39
2022/01/06 09:48:41;;;;;;;4.97;1.40;;;1.60;99.90;;;;;;5057135;28;20207;-39
2022/01/06 09:51:10;;;;;;;1.57;1.30;;;1.70;99.90;;;;;;5050101;28;20404;-39
2022/01/06 09:53:36;;;;;;;3.80;1.50;;;1.90;99.90;;;;;;5053719;28;20275;-39
2022/01/06 09:56:04;;;;;;;2.60;1.50;;;2.00;99.90;;;;;;5053130;28;20187;-39
2022/01/06 09:58:31;;;;;;;3.50;1.30;;;1.90;99.90;;;;;;5056488;28;20196;-39
2022/01/06 10:00:58;;;;;;;5.00;1.40;;;2.00;99.90;;;;;;5059033;28;20207;-40
2022/01/06 10:03:36;;;;;;;5.23;1.03;;;2.00;99.90;;;;;;5051922;28;20306;-39
2022/01/06 10:06:11;;;;;;;3.20;1.37;;;2.10;99.90;;;;;;5049536;28;20299;-40
2022/01/06 10:08:38;;;;;;;3.87;1.40;;;2.10;99.90;;;;;;5057747;28;20237;-39
2022/01/06 10:11:12;;;;;;;3.67;1.10;;;2.20;99.90;;;;;;5054445;28;20858;-39
2022/01/06 10:13:40;;;;;;;4.30;1.23;;;2.40;99.90;;;;;;5065041;28;20211;-39
2022/01/06 10:16:15;;;;;;;5.67;1.33;;;2.50;99.90;;;;;;5062882;28;20183;-39
2022/01/06 10:19:00;;;;;;;3.90;1.50;;;2.70;99.90;;;;;;5061654;28;20217;-39
2022/01/06 10:21:33;;;;;;;2.50;1.43;;;2.70;99.90;;;;;;5049146;28;20613;-39
2022/01/06 10:24:02;;;;;;;3.30;1.10;;;2.80;99.90;;;;;;5059416;28;20211;-39
2022/01/06 10:26:29;;;;;;;4.10;1.63;;;2.80;99.90;;;;;;5054468;28;20662;-39
2022/01/06 10:28:56;;;;;;;4.43;1.20;;;2.80;99.90;;;;;;5054776;28;20227;-40
2022/01/06 10:31:24;;;;;;;4.73;1.70;;;2.70;99.90;;;;;;5055902;28;20286;-39
2022/01/06 10:33:52;;;;;;;5.50;1.40;;;2.70;99.90;;;;;;5050336;28;20231;-40
2022/01/06 10:36:26;;;;;;;4.37;1.60;;;2.80;99.90;;;;;;5046657;28;20207;-39
2022/01/06 10:38:53;;;;;;;4.43;1.27;;;2.80;99.90;;;;;;5053701;28;20292;-39
2022/01/06 10:41:20;;;;;;;2.23;1.00;;;2.80;99.90;;;;;;5053311;28;20211;-40
2022/01/06 10:43:51;;;;;;;3.37;1.80;;;2.80;99.90;;;;;;5055354;28;20747;-39
2022/01/06 10:46:32;;;;;;;4.23;1.10;;;2.90;99.90;;;;;;5070399;28;20193;-39
2022/01/06 10:49:07;;;;;;;1.27;0.97;;;3.00;99.90;;;;;;5052393;28;20194;-40
2022/01/06 10:51:45;;;;;;;5.53;1.13;;;3.00;99.90;;;;;;5049768;28;20251;-39
2022/01/06 10:54:14;;;;;;;1.67;1.03;;;3.00;99.90;;;;;;5059524;28;20221;-39
2022/01/06 10:56:42;;;;;;;4.20;0.87;;;3.00;99.90;;;;;;5051978;28;20935;-40
2022/01/06 10:59:09;;;;;;;3.27;1.13;;;3.10;99.90;;;;;;5055921;28;20622;-40
2022/01/06 11:01:36;;;;;;;3.57;0.90;;;3.10;99.90;;;;;;5053535;28;20219;-39
2022/01/06 11:04:05;;;;;;;1.53;0.90;;;3.30;99.90;;;;;;5056454;28;20235;-39
2022/01/06 11:06:32;;;;;;;1.73;0.93;;;3.40;99.90;;;;;;5045230;28;20199;-39
2022/01/06 11:08:59;;;;;;;2.63;1.10;;;3.40;99.90;;;;;;5070460;28;20249;-39
2022/01/06 11:11:32;;;;;;;2.70;0.87;;;3.40;99.90;;;;;;5051768;28;20641;-39
2022/01/06 11:14:00;;;;;;;4.47;0.90;;;3.40;99.90;;;;;;5057010;28;20843;-40
2022/01/06 11:16:26;;;;;;;5.30;1.00;;;3.40;99.90;;;;;;5055332;28;20195;-39
2022/01/06 11:18:55;;;;;;;6.00;1.13;;;3.40;99.90;;;;;;5058012;28;20198;-40
2022/01/06 11:21:26;;;;;;;2.57;0.80;;;3.50;99.90;;;;;;5047803;28;20617;-39
2022/01/06 11:24:04;;;;;;;1.67;0.97;;;3.50;99.90;;;;;;5047679;28;20729;-40
2022/01/06 11:26:32;;;;;;;6.37;0.97;;;3.60;99.90;;;;;;5057467;28;20570;-40
2022/01/06 11:29:00;;;;;;;3.67;1.07;;;3.60;99.90;;;;;;5051892;28;20194;-39
2022/01/06 11:31:29;;;;;;;4.57;1.20;;;3.60;99.90;;;;;;5048796;28;20187;-39
2022/01/06 11:33:57;;;;;;;3.63;1.10;;;3.60;99.90;;;;;;5050418;28;20301;-39
2022/01/06 11:36:29;;;;;;;4.20;0.90;;;3.60;99.90;;;;;;5054114;28;20191;-38
2022/01/06 11:38:57;;;;;;;3.17;1.33;;;3.70;99.90;;;;;;5048138;28;20207;-38
2022/01/06 11:41:26;;;;;;;4.17;0.80;;;3.70;99.90;;;;;;5053053;28;20229;-38
2022/01/06 11:43:57;;;;;;;3.40;0.90;;;3.70;99.90;;;;;;5056323;28;20731;-39
2022/01/06 11:46:24;;;;;;;7.40;1.03;;;3.70;99.90;;;;;;5052296;28;20221;-38
2022/01/06 11:48:52;;;;;;;3.10;1.20;;;3.70;99.90;;;;;;5049922;28;20195;-41
2022/01/06 11:51:26;;;;;;;1.03;0.57;;;3.70;99.90;;;;;;5052472;28;20206;-38
2022/01/06 11:53:53;;;;;;;2.33;1.10;;;3.70;99.90;;;;;;5036021;28;20242;-39
2022/01/06 11:56:21;;;;;;;3.93;1.17;;;3.80;99.90;;;;;;5061625;28;20253;-39
2022/01/06 11:58:58;;;;;;;2.00;1.00;;;3.80;99.90;;;;;;5053168;28;20207;-39
2022/01/06 12:01:25;;;;;;;6.87;1.20;;;3.80;99.90;;;;;;5050340;28;20590;-39
2022/01/06 12:03:52;;;;;;;3.30;0.87;;;4.00;99.90;;;;;;5054463;28;20214;-39
2022/01/06 12:06:24;;;;;;;3.20;1.30;;;4.00;99.90;;;;;;5054797;28;20317;-38
2022/01/06 12:08:53;;;;;;;2.70;1.13;;;4.00;99.90;;;;;;5040760;28;20206;-39
2022/01/06 12:11:22;;;;;;;3.63;0.90;;;3.90;99.90;;;;;;5058423;28;20214;-39
2022/01/06 12:13:50;;;;;;;5.43;1.00;;;3.90;99.90;;;;;;5047089;28;20314;-38
2022/01/06 12:16:34;;;;;;;4.37;1.20;;;4.00;99.90;;;;;;5059802;28;20207;-38
2022/01/06 12:19:03;;;;;;;4.27;1.30;;;4.00;99.90;;;;;;5060310;28;20199;-38
2022/01/06 12:21:30;;;;;;;3.43;1.00;;;4.00;99.90;;;;;;5055975;28;20852;-38
2022/01/06 12:24:02;;;;;;;1.57;0.90;;;4.00;99.90;;;;;;5033836;28;20218;-38
2022/01/06 12:26:29;;;;;;;2.63;1.00;;;4.00;99.90;;;;;;5049993;28;20565;-38
2022/01/06 12:28:56;;;;;;;6.50;1.37;;;4.00;99.90;;;;;;5048296;28;20213;-40
2022/01/06 12:31:25;;;;;;;5.93;1.30;;;4.00;99.90;;;;;;5048918;28;20689;-38
2022/01/06 12:33:58;;;;;;;4.40;1.10;;;4.10;99.90;;;;;;5057504;28;20575;-38
2022/01/06 12:36:25;;;;;;;6.80;1.57;;;4.10;99.90;;;;;;5056811;28;20191;-39
2022/01/06 12:38:52;;;;;;;4.60;1.33;;;4.20;99.90;;;;;;5050052;28;20202;-39
2022/01/06 12:41:28;;;;;;;3.27;0.90;;;4.10;99.90;;;;;;5054863;28;20237;-39
2022/01/06 12:43:56;;;;;;;2.90;1.10;;;4.10;99.90;;;;;;5062050;28;20226;-39
2022/01/06 12:46:24;;;;;;;3.03;1.13;;;4.10;99.90;;;;;;5060135;28;20197;-39
2022/01/06 12:48:53;;;;;;;3.03;1.20;;;4.10;99.90;;;;;;5047333;28;20215;-39
2022/01/06 12:51:22;;;;;;;2.30;0.90;;;4.20;99.90;;;;;;5046587;28;20202;-39
2022/01/06 12:53:50;;;;;;;4.57;1.30;;;4.20;99.90;;;;;;5052859;28;20222;-38
2022/01/06 12:56:26;;;;;;;3.50;1.00;;;4.20;99.90;;;;;;5041541;28;20206;-39
2022/01/06 12:58:55;;;;;;;6.83;0.97;;;4.20;99.90;;;;;;5047983;28;20195;-38
2022/01/06 13:01:22;;;;;;;2.70;0.70;;;4.20;99.90;;;;;;5062234;28;20280;-43
2022/01/06 13:04:13;;;;;;;1.53;0.80;;;4.20;99.90;;;;;;5063834;28;20233;-36